sensor_id;sensor_type;location;lat;lon;timestamp;pressure;altitude;pressure_sealevel;temperature;humidity
61961;BME280;47923;42.506;24.192;2023-01-13T00:00:21;95746.03;;;2.30;83.49
61961;BME280;47923;42.506;24.192;2023-01-13T00:02:47;95635.44;;;1.50;83.30
61961;BME280;47923;42.506;24.192;2023-01-13T00:05:12;95759.66;;;2.01;83.74
61961;BME280;47923;42.506;24.192;2023-01-13T00:07:38;95757.66;;;2.20;84.48
61961;BME280;47923;42.506;24.192;2023-01-13T00:10:09;95749.00;;;2.14;83.92
61961;BME280;47923;42.506;24.192;2023-01-13T00:12:39;95753.34;;;2.10;84.46
61961;BME280;47923;42.506;24.192;2023-01-13T00:15:06;95720.78;;;1.86;84.56
61961;BME280;47923;42.506;24.192;2023-01-13T00:17:32;95768.63;;;2.05;84.76
61961;BME280;47923;42.506;24.192;2023-01-13T00:19:57;95750.88;;;2.00;84.99
61961;BME280;47923;42.506;24.192;2023-01-13T00:22:23;95724.91;;;1.78;84.98
61961;BME280;47923;42.506;24.192;2023-01-13T00:24:48;95479.19;;;0.21;85.11
61961;BME280;47923;42.506;24.192;2023-01-13T00:27:13;95352.06;;;-0.64;85.04
61961;BME280;47923;42.506;24.192;2023-01-13T00:29:39;95754.41;;;1.96;85.34
61961;BME280;47923;42.506;24.192;2023-01-13T00:32:04;95640.91;;;1.12;85.62
61961;BME280;47923;42.506;24.192;2023-01-13T00:34:29;95759.84;;;1.90;86.01
61961;BME280;47923;42.506;24.192;2023-01-13T00:36:55;95444.53;;;-0.20;85.67
61961;BME280;47923;42.506;24.192;2023-01-13T00:39:22;95743.31;;;1.61;85.55
61961;BME280;47923;42.506;24.192;2023-01-13T00:41:47;95694.69;;;1.42;85.87
61961;BME280;47923;42.506;24.192;2023-01-13T00:44:31;95763.47;;;1.81;85.80
61961;BME280;47923;42.506;24.192;2023-01-13T00:46:57;95744.34;;;1.79;86.21
61961;BME280;47923;42.506;24.192;2023-01-13T00:49:22;95676.81;;;1.28;85.85
61961;BME280;47923;42.506;24.192;2023-01-13T00:51:47;95578.66;;;0.67;86.37
61961;BME280;47923;42.506;24.192;2023-01-13T00:54:13;95747.00;;;1.79;86.59
61961;BME280;47923;42.506;24.192;2023-01-13T00:56:38;95650.47;;;1.13;86.69
61961;BME280;47923;42.506;24.192;2023-01-13T00:59:04;95545.41;;;0.50;86.38
61961;BME280;47923;42.506;24.192;2023-01-13T01:01:29;95725.09;;;1.54;86.06
61961;BME280;47923;42.506;24.192;2023-01-13T01:03:55;95739.41;;;1.72;86.16
61961;BME280;47923;42.506;24.192;2023-01-13T01:06:25;95740.28;;;1.67;86.43
61961;BME280;47923;42.506;24.192;2023-01-13T01:08:53;95625.31;;;0.92;86.74
61961;BME280;47923;42.506;24.192;2023-01-13T01:11:21;95725.88;;;1.55;86.62
61961;BME280;47923;42.506;24.192;2023-01-13T01:13:48;95450.16;;;-0.21;86.55
61961;BME280;47923;42.506;24.192;2023-01-13T01:16:16;95732.66;;;1.61;87.13
61961;BME280;47923;42.506;24.192;2023-01-13T01:18:44;95735.34;;;1.61;87.07
61961;BME280;47923;42.506;24.192;2023-01-13T01:21:11;95703.75;;;1.41;87.07
61961;BME280;47923;42.506;24.192;2023-01-13T01:23:38;95724.41;;;1.62;86.57
61961;BME280;47923;42.506;24.192;2023-01-13T01:26:07;95601.03;;;0.79;86.58
61961;BME280;47923;42.506;24.192;2023-01-13T01:28:34;95721.53;;;1.59;87.08
61961;BME280;47923;42.506;24.192;2023-01-13T01:31:03;95649.28;;;1.05;86.50
61961;BME280;47923;42.506;24.192;2023-01-13T01:33:29;95722.31;;;1.59;86.52
61961;BME280;47923;42.506;24.192;2023-01-13T01:35:54;95721.53;;;1.59;86.14
61961;BME280;47923;42.506;24.192;2023-01-13T01:38:20;95723.72;;;1.57;86.16
61961;BME280;47923;42.506;24.192;2023-01-13T01:40:47;95747.44;;;1.53;86.28
61961;BME280;47923;42.506;24.192;2023-01-13T01:43:18;95687.16;;;1.30;86.31
61961;BME280;47923;42.506;24.192;2023-01-13T01:46:03;95653.81;;;1.05;86.27
61961;BME280;47923;42.506;24.192;2023-01-13T01:48:33;95544.09;;;0.34;86.11
61961;BME280;47923;42.506;24.192;2023-01-13T01:51:01;95722.03;;;1.47;86.52
61961;BME280;47923;42.506;24.192;2023-01-13T01:53:28;95653.19;;;0.94;86.52
61961;BME280;47923;42.506;24.192;2023-01-13T01:55:56;95652.38;;;0.94;86.67
61961;BME280;47923;42.506;24.192;2023-01-13T01:58:28;95726.53;;;1.47;86.57
61961;BME280;47923;42.506;24.192;2023-01-13T02:00:55;95129.78;;;-2.35;85.49
61961;BME280;47923;42.506;24.192;2023-01-13T02:03:21;95604.53;;;0.61;85.45
61961;BME280;47923;42.506;24.192;2023-01-13T02:05:46;95728.13;;;1.48;85.85
61961;BME280;47923;42.506;24.192;2023-01-13T02:08:13;95660.78;;;1.01;86.06
61961;BME280;47923;42.506;24.192;2023-01-13T02:10:40;95603.53;;;0.57;85.98
61961;BME280;47923;42.506;24.192;2023-01-13T02:13:11;95722.22;;;1.51;85.89
61961;BME280;47923;42.506;24.192;2023-01-13T02:24:12;95734.06;;;1.58;85.95
61961;BME280;47923;42.506;24.192;2023-01-13T02:27:07;95733.56;;;1.56;85.98
61961;BME280;47923;42.506;24.192;2023-01-13T02:37:57;95549.81;;;0.41;86.24
61961;BME280;47923;42.506;24.192;2023-01-13T02:40:37;95646.13;;;1.03;86.13
61961;BME280;47923;42.506;24.192;2023-01-13T02:46:04;95719.44;;;1.42;86.00
61961;BME280;47923;42.506;24.192;2023-01-13T02:48:33;95621.38;;;0.89;85.91
61961;BME280;47923;42.506;24.192;2023-01-13T02:51:09;95744.25;;;1.70;86.47
61961;BME280;47923;42.506;24.192;2023-01-13T02:53:42;95734.47;;;1.65;86.44
61961;BME280;47923;42.506;24.192;2023-01-13T02:56:09;95720.63;;;1.50;86.58
61961;BME280;47923;42.506;24.192;2023-01-13T02:58:38;95748.78;;;1.70;87.04
61961;BME280;47923;42.506;24.192;2023-01-13T03:01:05;95743.72;;;1.68;87.29
61961;BME280;47923;42.506;24.192;2023-01-13T03:03:30;95748.56;;;1.66;87.73
61961;BME280;47923;42.506;24.192;2023-01-13T03:08:49;95746.50;;;1.63;88.10
61961;BME280;47923;42.506;24.192;2023-01-13T03:11:18;95621.22;;;0.80;88.53
61961;BME280;47923;42.506;24.192;2023-01-13T03:21:53;95698.41;;;1.27;89.00
61961;BME280;47923;42.506;24.192;2023-01-13T03:24:49;95552.34;;;0.33;89.26
61961;BME280;47923;42.506;24.192;2023-01-13T03:29:57;95748.56;;;1.66;89.08
61961;BME280;47923;42.506;24.192;2023-01-13T03:32:45;95746.69;;;1.66;88.32
61961;BME280;47923;42.506;24.192;2023-01-13T03:35:26;95715.69;;;1.43;88.38
61961;BME280;47923;42.506;24.192;2023-01-13T03:38:06;95728.72;;;1.45;88.09
61961;BME280;47923;42.506;24.192;2023-01-13T03:40:37;95723.59;;;1.48;88.15
61961;BME280;47923;42.506;24.192;2023-01-13T03:43:13;95638.91;;;0.90;87.90
61961;BME280;47923;42.506;24.192;2023-01-13T03:46:02;95700.78;;;1.28;88.28
61961;BME280;47923;42.506;24.192;2023-01-13T03:48:32;95762.28;;;1.73;88.13
61961;BME280;47923;42.506;24.192;2023-01-13T03:51:06;95728.13;;;1.48;88.75
61961;BME280;47923;42.506;24.192;2023-01-13T03:53:40;95657.81;;;1.02;88.60
61961;BME280;47923;42.506;24.192;2023-01-13T03:56:14;95728.13;;;1.48;88.28
61961;BME280;47923;42.506;24.192;2023-01-13T03:58:44;95711.03;;;1.35;88.33
61961;BME280;47923;42.506;24.192;2023-01-13T04:01:18;95537.38;;;0.23;88.09
61961;BME280;47923;42.506;24.192;2023-01-13T04:03:59;95769.91;;;1.80;87.86
61961;BME280;47923;42.506;24.192;2023-01-13T04:09:29;95777.91;;;1.80;87.75
61961;BME280;47923;42.506;24.192;2023-01-13T04:12:07;95658.03;;;1.06;87.99
61961;BME280;47923;42.506;24.192;2023-01-13T04:14:33;95680.41;;;1.05;88.18
61961;BME280;47923;42.506;24.192;2023-01-13T04:16:59;95744.59;;;1.50;88.56
61961;BME280;47923;42.506;24.192;2023-01-13T04:19:25;95698.94;;;1.10;88.01
61961;BME280;47923;42.506;24.192;2023-01-13T04:21:50;95777.78;;;1.71;88.32
61961;BME280;47923;42.506;24.192;2023-01-13T04:24:16;95689.38;;;1.09;88.33
61961;BME280;47923;42.506;24.192;2023-01-13T04:26:41;95655.78;;;0.80;88.42
61961;BME280;47923;42.506;24.192;2023-01-13T04:29:07;95783.13;;;1.71;88.52
61961;BME280;47923;42.506;24.192;2023-01-13T04:31:32;95797.53;;;1.70;88.56
61961;BME280;47923;42.506;24.192;2023-01-13T04:33:58;95742.63;;;1.42;88.96
61961;BME280;47923;42.506;24.192;2023-01-13T04:36:23;95689.94;;;0.92;88.87
61961;BME280;47923;42.506;24.192;2023-01-13T04:38:55;95785.16;;;1.60;89.53
61961;BME280;47923;42.506;24.192;2023-01-13T04:41:20;95578.03;;;0.23;89.38
61961;BME280;47923;42.506;24.192;2023-01-13T04:43:45;95800.44;;;1.55;89.90
61961;BME280;47923;42.506;24.192;2023-01-13T04:46:11;95783.69;;;1.54;89.69
61961;BME280;47923;42.506;24.192;2023-01-13T04:48:36;95787.66;;;1.38;90.11
61961;BME280;47923;42.506;24.192;2023-01-13T04:51:02;95720.53;;;1.08;90.04
61961;BME280;47923;42.506;24.192;2023-01-13T04:53:27;95789.38;;;1.48;90.22
61961;BME280;47923;42.506;24.192;2023-01-13T04:55:53;95668.91;;;0.58;89.91
61961;BME280;47923;42.506;24.192;2023-01-13T04:58:19;95796.84;;;1.46;90.37
61961;BME280;47923;42.506;24.192;2023-01-13T05:00:45;95525.34;;;-0.26;90.25
61961;BME280;47923;42.506;24.192;2023-01-13T05:03:10;95774.28;;;1.24;90.03
61961;BME280;47923;42.506;24.192;2023-01-13T05:05:36;95792.53;;;1.50;89.76
61961;BME280;47923;42.506;24.192;2023-01-13T05:08:02;95793.31;;;1.50;89.69
61961;BME280;47923;42.506;24.192;2023-01-13T05:10:28;95701.53;;;0.82;89.35
61961;BME280;47923;42.506;24.192;2023-01-13T05:12:54;95744.69;;;1.12;89.52
61961;BME280;47923;42.506;24.192;2023-01-13T05:15:40;95811.66;;;1.52;89.63
61961;BME280;47923;42.506;24.192;2023-01-13T05:18:26;95808.22;;;1.51;89.66
61961;BME280;47923;42.506;24.192;2023-01-13T05:20:53;95804.47;;;1.52;89.68
61961;BME280;47923;42.506;24.192;2023-01-13T05:23:19;95807.41;;;1.51;89.60
61961;BME280;47923;42.506;24.192;2023-01-13T05:26:02;95809.78;;;1.52;89.73
61961;BME280;47923;42.506;24.192;2023-01-13T05:28:32;95809.78;;;1.52;89.71
61961;BME280;47923;42.506;24.192;2023-01-13T05:30:58;95808.81;;;1.48;90.00
61961;BME280;47923;42.506;24.192;2023-01-13T05:33:24;95694.47;;;0.73;89.89
61961;BME280;47923;42.506;24.192;2023-01-13T05:35:49;95628.72;;;0.27;89.70
61961;BME280;47923;42.506;24.192;2023-01-13T05:38:16;95810.16;;;1.46;90.32
61961;BME280;47923;42.506;24.192;2023-01-13T05:40:42;95816.78;;;1.48;90.03
61961;BME280;47923;42.506;24.192;2023-01-13T05:43:28;95780.81;;;1.32;89.88
61961;BME280;47923;42.506;24.192;2023-01-13T05:46:08;95763.09;;;1.27;89.68
61961;BME280;47923;42.506;24.192;2023-01-13T05:48:39;95807.84;;;1.58;90.02
61961;BME280;47923;42.506;24.192;2023-01-13T05:51:07;95812.56;;;1.61;90.17
61961;BME280;47923;42.506;24.192;2023-01-13T05:53:33;95816.84;;;1.62;89.51
61961;BME280;47923;42.506;24.192;2023-01-13T05:56:02;95629.69;;;0.50;89.30
61961;BME280;47923;42.506;24.192;2023-01-13T05:58:28;95797.97;;;1.58;89.59
61961;BME280;47923;42.506;24.192;2023-01-13T06:01:06;95816.94;;;1.71;89.60
61961;BME280;47923;42.506;24.192;2023-01-13T06:03:31;95688.34;;;0.91;89.47
61961;BME280;47923;42.506;24.192;2023-01-13T06:05:57;95675.63;;;0.88;89.18
61961;BME280;47923;42.506;24.192;2023-01-13T06:08:25;95827.91;;;1.83;89.62
61961;BME280;47923;42.506;24.192;2023-01-13T06:10:51;95832.19;;;1.84;89.28
61961;BME280;47923;42.506;24.192;2023-01-13T06:13:16;95649.88;;;0.70;89.37
61961;BME280;47923;42.506;24.192;2023-01-13T06:15:42;95760.56;;;1.50;89.45
61961;BME280;47923;42.506;24.192;2023-01-13T06:18:07;95787.34;;;1.72;89.54
61961;BME280;47923;42.506;24.192;2023-01-13T06:20:33;95845.69;;;1.87;89.20
61961;BME280;47923;42.506;24.192;2023-01-13T06:22:59;95618.69;;;0.57;89.12
61961;BME280;47923;42.506;24.192;2023-01-13T06:27:58;95664.03;;;0.98;88.88
61961;BME280;47923;42.506;24.192;2023-01-13T06:30:34;95809.88;;;1.93;88.83
61961;BME280;47923;42.506;24.192;2023-01-13T06:33:02;95810.78;;;2.03;89.01
61961;BME280;47923;42.506;24.192;2023-01-13T06:35:32;95840.63;;;2.32;88.90
61961;BME280;47923;42.506;24.192;2023-01-13T06:38:00;95846.44;;;2.34;88.30
61961;BME280;47923;42.506;24.192;2023-01-13T06:40:27;95794.41;;;2.09;88.56
61961;BME280;47923;42.506;24.192;2023-01-13T06:42:54;95777.13;;;2.07;88.03
61961;BME280;47923;42.506;24.192;2023-01-13T06:45:38;95755.31;;;2.05;87.63
61961;BME280;47923;42.506;24.192;2023-01-13T06:48:05;95813.88;;;2.51;87.17
61961;BME280;47923;42.506;24.192;2023-01-13T06:50:31;95842.47;;;2.87;87.43
61961;BME280;47923;42.506;24.192;2023-01-13T06:52:56;95575.38;;;1.30;86.93
61961;BME280;47923;42.506;24.192;2023-01-13T06:55:22;95853.06;;;3.14;86.05
61961;BME280;47923;42.506;24.192;2023-01-13T06:57:48;95847.69;;;3.28;85.02
61961;BME280;47923;42.506;24.192;2023-01-13T07:00:15;95842.16;;;3.38;84.42
61961;BME280;47923;42.506;24.192;2023-01-13T07:02:40;95850.69;;;3.49;84.63
61961;BME280;47923;42.506;24.192;2023-01-13T07:05:06;95756.53;;;2.98;83.79
61961;BME280;47923;42.506;24.192;2023-01-13T07:07:31;95609.19;;;2.20;82.00
61961;BME280;47923;42.506;24.192;2023-01-13T07:09:58;95853.97;;;3.91;80.97
61961;BME280;47923;42.506;24.192;2023-01-13T07:12:24;95852.75;;;3.97;80.51
61961;BME280;47923;42.506;24.192;2023-01-13T07:14:49;95782.59;;;3.60;80.83
61961;BME280;47923;42.506;24.192;2023-01-13T07:17:33;95763.09;;;3.37;80.53
61961;BME280;47923;42.506;24.192;2023-01-13T07:19:59;95754.59;;;3.57;80.24
61961;BME280;47923;42.506;24.192;2023-01-13T07:22:24;95860.81;;;4.36;78.92
61961;BME280;47923;42.506;24.192;2023-01-13T07:24:50;95720.41;;;3.68;77.80
61961;BME280;47923;42.506;24.192;2023-01-13T07:27:15;95745.16;;;3.91;76.82
61961;BME280;47923;42.506;24.192;2023-01-13T07:29:41;95862.69;;;4.84;76.81
61961;BME280;47923;42.506;24.192;2023-01-13T07:32:08;95863.22;;;5.04;74.98
61961;BME280;47923;42.506;24.192;2023-01-13T07:34:33;95862.47;;;5.20;74.92
61961;BME280;47923;42.506;24.192;2023-01-13T07:36:59;95860.75;;;5.42;74.09
61961;BME280;47923;42.506;24.192;2023-01-13T07:39:25;95841.34;;;5.27;72.17
61961;BME280;47923;42.506;24.192;2023-01-13T07:41:50;95880.16;;;5.47;72.01
61961;BME280;47923;42.506;24.192;2023-01-13T07:44:34;95869.28;;;5.61;72.16
61961;BME280;47923;42.506;24.192;2023-01-13T07:46:59;95788.25;;;5.12;70.23
61961;BME280;47923;42.506;24.192;2023-01-13T07:49:24;95653.41;;;4.22;70.47
61961;BME280;47923;42.506;24.192;2023-01-13T07:51:50;95696.41;;;4.60;69.49
61961;BME280;47923;42.506;24.192;2023-01-13T07:54:15;95873.97;;;5.90;69.39
61961;BME280;47923;42.506;24.192;2023-01-13T07:56:41;95847.50;;;5.71;67.84
61961;BME280;47923;42.506;24.192;2023-01-13T07:59:06;95843.41;;;5.65;67.34
61961;BME280;47923;42.506;24.192;2023-01-13T08:01:31;95790.44;;;5.53;68.24
61961;BME280;47923;42.506;24.192;2023-01-13T08:03:57;95661.16;;;4.84;67.92
61961;BME280;47923;42.506;24.192;2023-01-13T08:06:24;95887.75;;;6.53;67.30
61961;BME280;47923;42.506;24.192;2023-01-13T08:08:50;95888.06;;;6.51;65.05
61961;BME280;47923;42.506;24.192;2023-01-13T08:11:15;95884.09;;;6.11;64.98
61961;BME280;47923;42.506;24.192;2023-01-13T08:13:41;95743.22;;;5.14;65.81
61961;BME280;47923;42.506;24.192;2023-01-13T08:16:09;95887.63;;;6.41;66.54
61961;BME280;47923;42.506;24.192;2023-01-13T08:18:36;95792.59;;;5.95;64.46
61961;BME280;47923;42.506;24.192;2023-01-13T08:21:05;95816.81;;;6.24;64.58
61961;BME280;47923;42.506;24.192;2023-01-13T08:23:32;95657.28;;;5.37;63.19
61961;BME280;47923;42.506;24.192;2023-01-13T08:26:13;95890.66;;;6.77;63.50
61961;BME280;47923;42.506;24.192;2023-01-13T08:28:38;95872.03;;;6.72;63.46
61961;BME280;47923;42.506;24.192;2023-01-13T08:31:06;95898.34;;;7.17;63.43
61961;BME280;47923;42.506;24.192;2023-01-13T08:33:32;95696.63;;;6.09;62.60
61961;BME280;47923;42.506;24.192;2023-01-13T08:36:02;95842.50;;;7.02;62.31
61961;BME280;47923;42.506;24.192;2023-01-13T08:38:28;95899.78;;;7.65;61.25
61961;BME280;47923;42.506;24.192;2023-01-13T08:40:53;95901.81;;;7.68;60.70
61961;BME280;47923;42.506;24.192;2023-01-13T08:43:18;95905.88;;;7.74;61.91
61961;BME280;47923;42.506;24.192;2023-01-13T08:45:44;95905.88;;;7.95;60.23
61961;BME280;47923;42.506;24.192;2023-01-13T08:48:10;95678.69;;;6.51;60.09
61961;BME280;47923;42.506;24.192;2023-01-13T08:50:35;95892.88;;;7.97;60.47
61961;BME280;47923;42.506;24.192;2023-01-13T08:53:00;95904.13;;;8.11;59.38
61961;BME280;47923;42.506;24.192;2023-01-13T08:55:26;95700.00;;;6.98;58.59
61961;BME280;47923;42.506;24.192;2023-01-13T08:57:51;95893.06;;;8.58;57.98
61961;BME280;47923;42.506;24.192;2023-01-13T09:00:17;95892.44;;;8.85;56.79
61961;BME280;47923;42.506;24.192;2023-01-13T09:02:43;95890.97;;;8.88;55.72
61961;BME280;47923;42.506;24.192;2023-01-13T09:05:09;95890.72;;;8.81;55.82
61961;BME280;47923;42.506;24.192;2023-01-13T09:07:36;95894.69;;;8.83;55.08
61961;BME280;47923;42.506;24.192;2023-01-13T09:10:06;95890.28;;;9.16;55.52
61961;BME280;47923;42.506;24.192;2023-01-13T09:12:32;95633.25;;;7.79;54.47
61961;BME280;47923;42.506;24.192;2023-01-13T09:15:16;95821.47;;;9.46;53.87
61961;BME280;47923;42.506;24.192;2023-01-13T09:17:45;95813.19;;;9.79;52.01
61961;BME280;47923;42.506;24.192;2023-01-13T09:20:12;95848.91;;;10.04;53.07
61961;BME280;47923;42.506;24.192;2023-01-13T09:22:38;95812.63;;;10.02;51.99
61961;BME280;47923;42.506;24.192;2023-01-13T09:25:05;95872.41;;;10.60;51.56
61961;BME280;47923;42.506;24.192;2023-01-13T09:27:30;95774.94;;;10.21;51.84
61961;BME280;47923;42.506;24.192;2023-01-13T09:29:56;95861.06;;;10.38;51.17
61961;BME280;47923;42.506;24.192;2023-01-13T09:32:21;95831.16;;;10.78;51.83
61961;BME280;47923;42.506;24.192;2023-01-13T09:34:47;95807.91;;;11.25;50.38
61961;BME280;47923;42.506;24.192;2023-01-13T09:37:32;95859.72;;;11.62;48.93
61961;BME280;47923;42.506;24.192;2023-01-13T09:40:05;95867.19;;;11.69;48.90
61961;BME280;47923;42.506;24.192;2023-01-13T09:45:32;95846.97;;;12.01;47.24
61961;BME280;47923;42.506;24.192;2023-01-13T09:48:18;95836.19;;;13.42;44.60
61961;BME280;47923;42.506;24.192;2023-01-13T09:51:16;95840.59;;;13.24;45.18
61961;BME280;47923;42.506;24.192;2023-01-13T09:53:59;95836.47;;;12.61;46.05
61961;BME280;47923;42.506;24.192;2023-01-13T09:56:26;95804.31;;;12.37;45.96
61961;BME280;47923;42.506;24.192;2023-01-13T09:58:51;95604.75;;;10.33;46.55
61961;BME280;47923;42.506;24.192;2023-01-13T10:03:45;95819.72;;;12.79;45.27
61961;BME280;47923;42.506;24.192;2023-01-13T10:06:36;95797.72;;;13.10;43.85
61961;BME280;47923;42.506;24.192;2023-01-13T10:09:20;95831.66;;;14.17;41.50
61961;BME280;47923;42.506;24.192;2023-01-13T10:11:48;95819.63;;;15.58;39.42
61961;BME280;47923;42.506;24.192;2023-01-13T10:14:50;95823.41;;;16.19;38.26
61961;BME280;47923;42.506;24.192;2023-01-13T10:17:45;95813.78;;;16.82;37.10
61961;BME280;47923;42.506;24.192;2023-01-13T10:26:15;95811.03;;;17.04;36.07
61961;BME280;47923;42.506;24.192;2023-01-13T10:28:55;95633.78;;;14.81;38.02
61961;BME280;47923;42.506;24.192;2023-01-13T10:31:22;95752.84;;;15.13;38.53
61961;BME280;47923;42.506;24.192;2023-01-13T10:33:57;95800.00;;;15.28;38.12
61961;BME280;47923;42.506;24.192;2023-01-13T10:36:22;95786.34;;;15.97;38.27
61961;BME280;47923;42.506;24.192;2023-01-13T10:38:49;95802.06;;;17.03;36.53
61961;BME280;47923;42.506;24.192;2023-01-13T10:44:03;95805.56;;;16.54;36.12
61961;BME280;47923;42.506;24.192;2023-01-13T10:46:34;95754.91;;;15.34;37.83
61961;BME280;47923;42.506;24.192;2023-01-13T10:49:35;95743.03;;;15.63;36.80
61961;BME280;47923;42.506;24.192;2023-01-13T10:52:23;95797.25;;;15.24;39.86
61961;BME280;47923;42.506;24.192;2023-01-13T10:54:51;95786.19;;;15.61;38.37
61961;BME280;47923;42.506;24.192;2023-01-13T10:57:22;95785.41;;;14.47;40.16
61961;BME280;47923;42.506;24.192;2023-01-13T10:59:48;95763.78;;;13.20;41.96
61961;BME280;47923;42.506;24.192;2023-01-13T11:02:32;95778.78;;;13.40;42.35
61961;BME280;47923;42.506;24.192;2023-01-13T11:05:14;95599.88;;;12.61;42.07
61961;BME280;47923;42.506;24.192;2023-01-13T11:07:50;95785.84;;;13.78;42.04
61961;BME280;47923;42.506;24.192;2023-01-13T11:10:28;95766.25;;;13.96;42.02
61961;BME280;47923;42.506;24.192;2023-01-13T11:15:33;95773.41;;;14.15;42.17
61961;BME280;47923;42.506;24.192;2023-01-13T11:18:07;95771.75;;;14.40;41.36
61961;BME280;47923;42.506;24.192;2023-01-13T11:20:38;95766.06;;;15.07;40.49
61961;BME280;47923;42.506;24.192;2023-01-13T11:23:33;95750.59;;;16.23;39.94
61961;BME280;47923;42.506;24.192;2023-01-13T11:26:52;95746.59;;;17.46;35.77
61961;BME280;47923;42.506;24.192;2023-01-13T11:32:21;95624.41;;;16.26;36.32
61961;BME280;47923;42.506;24.192;2023-01-13T11:34:58;95447.34;;;15.55;35.79
61961;BME280;47923;42.506;24.192;2023-01-13T11:37:28;95751.44;;;16.70;35.18
61961;BME280;47923;42.506;24.192;2023-01-13T11:42:48;95736.53;;;15.96;38.36
61961;BME280;47923;42.506;24.192;2023-01-13T11:47:48;95652.22;;;14.47;38.33
61961;BME280;47923;42.506;24.192;2023-01-13T11:50:21;95583.94;;;13.57;40.60
61961;BME280;47923;42.506;24.192;2023-01-13T12:01:16;95684.25;;;13.46;42.50
61961;BME280;47923;42.506;24.192;2023-01-13T12:03:57;95647.84;;;12.57;42.04
61961;BME280;47923;42.506;24.192;2023-01-13T12:06:33;95721.72;;;12.54;43.29
61961;BME280;47923;42.506;24.192;2023-01-13T12:20:06;95755.91;;;12.12;45.10
61961;BME280;47923;42.506;24.192;2023-01-13T12:22:38;95754.50;;;11.80;46.40
61961;BME280;47923;42.506;24.192;2023-01-13T12:25:35;95753.50;;;11.30;47.81
61961;BME280;47923;42.506;24.192;2023-01-13T12:28:17;95672.09;;;10.96;48.04
61961;BME280;47923;42.506;24.192;2023-01-13T12:30:48;95747.97;;;11.42;47.28
61961;BME280;47923;42.506;24.192;2023-01-13T12:36:36;95696.66;;;10.72;47.64
61961;BME280;47923;42.506;24.192;2023-01-13T12:47:40;95755.44;;;10.59;51.79
61961;BME280;47923;42.506;24.192;2023-01-13T12:52:58;95756.28;;;9.84;54.91
61961;BME280;47923;42.506;24.192;2023-01-13T12:55:25;95761.28;;;9.70;55.79
61961;BME280;47923;42.506;24.192;2023-01-13T13:08:16;95777.91;;;9.04;59.45
61961;BME280;47923;42.506;24.192;2023-01-13T13:14:12;95770.63;;;8.92;59.74
61961;BME280;47923;42.506;24.192;2023-01-13T13:16:49;95730.00;;;8.73;59.56
61961;BME280;47923;42.506;24.192;2023-01-13T13:24:37;95778.13;;;8.86;59.72
61961;BME280;47923;42.506;24.192;2023-01-13T13:41:23;95777.34;;;8.37;62.48
61961;BME280;47923;42.506;24.192;2023-01-13T13:44:21;95785.00;;;8.35;62.31
61961;BME280;47923;42.506;24.192;2023-01-13T13:47:08;95703.25;;;7.70;62.76
61961;BME280;47923;42.506;24.192;2023-01-13T13:49:39;95789.00;;;8.29;63.38
61961;BME280;47923;42.506;24.192;2023-01-13T13:52:07;95792.25;;;8.35;63.29
61961;BME280;47923;42.506;24.192;2023-01-13T13:54:37;95813.22;;;8.29;62.69
61961;BME280;47923;42.506;24.192;2023-01-13T13:57:15;95802.13;;;8.18;63.50
61961;BME280;47923;42.506;24.192;2023-01-13T13:59:41;95808.47;;;8.14;63.12
61961;BME280;47923;42.506;24.192;2023-01-13T14:02:16;95734.75;;;7.69;63.75
61961;BME280;47923;42.506;24.192;2023-01-13T14:04:43;95741.47;;;7.75;63.79
61961;BME280;47923;42.506;24.192;2023-01-13T14:07:18;95639.25;;;7.06;63.31
61961;BME280;47923;42.506;24.192;2023-01-13T14:09:50;95576.56;;;6.69;63.30
61961;BME280;47923;42.506;24.192;2023-01-13T14:12:23;95804.19;;;8.00;64.12
61961;BME280;47923;42.506;24.192;2023-01-13T14:14:50;95809.34;;;7.93;64.78
61961;BME280;47923;42.506;24.192;2023-01-13T14:17:26;95806.66;;;7.93;64.66
61961;BME280;47923;42.506;24.192;2023-01-13T14:20:02;95532.47;;;6.16;65.54
61961;BME280;47923;42.506;24.192;2023-01-13T14:22:30;95675.53;;;7.12;65.85
61961;BME280;47923;42.506;24.192;2023-01-13T14:24:55;95806.53;;;7.90;66.49
61961;BME280;47923;42.506;24.192;2023-01-13T14:27:24;95821.75;;;7.86;66.14
61961;BME280;47923;42.506;24.192;2023-01-13T14:29:53;95809.41;;;7.85;66.76
61961;BME280;47923;42.506;24.192;2023-01-13T14:32:21;95585.59;;;6.22;67.20
61961;BME280;47923;42.506;24.192;2023-01-13T14:34:47;95794.06;;;7.52;68.31
61961;BME280;47923;42.506;24.192;2023-01-13T14:37:32;95733.28;;;7.06;68.60
61961;BME280;47923;42.506;24.192;2023-01-13T14:39:59;95639.94;;;6.40;69.22
61961;BME280;47923;42.506;24.192;2023-01-13T14:42:24;95751.50;;;7.00;70.71
61961;BME280;47923;42.506;24.192;2023-01-13T14:44:51;95816.28;;;7.40;70.65
61961;BME280;47923;42.506;24.192;2023-01-13T14:47:28;95540.16;;;5.46;71.07
61961;BME280;47923;42.506;24.192;2023-01-13T14:52:50;95758.38;;;6.59;73.06
61961;BME280;47923;42.506;24.192;2023-01-13T14:55:20;95832.72;;;6.97;73.37
61961;BME280;47923;42.506;24.192;2023-01-13T14:57:47;95827.28;;;6.85;73.96
61961;BME280;47923;42.506;24.192;2023-01-13T15:07:51;95742.75;;;5.94;76.03
61961;BME280;47923;42.506;24.192;2023-01-13T15:10:31;95845.78;;;6.48;76.20
61961;BME280;47923;42.506;24.192;2023-01-13T15:13:00;95833.13;;;6.49;76.64
61961;BME280;47923;42.506;24.192;2023-01-13T15:15:32;95836.94;;;6.48;76.54
61961;BME280;47923;42.506;24.192;2023-01-13T15:18:00;95837.88;;;6.43;77.02
61961;BME280;47923;42.506;24.192;2023-01-13T15:20:26;95853.69;;;6.36;77.03
61961;BME280;47923;42.506;24.192;2023-01-13T15:22:54;95846.44;;;6.36;77.53
61961;BME280;47923;42.506;24.192;2023-01-13T15:25:20;95863.19;;;6.33;77.33
61961;BME280;47923;42.506;24.192;2023-01-13T15:27:47;95753.53;;;5.68;77.52
61961;BME280;47923;42.506;24.192;2023-01-13T15:30:23;95847.25;;;6.28;77.75
61961;BME280;47923;42.506;24.192;2023-01-13T15:32:52;95786.59;;;5.89;77.47
61961;BME280;47923;42.506;24.192;2023-01-13T15:35:20;95559.47;;;4.40;77.81